createdAt,value
2024-05-09T00:00:29.715Z,1043.00
2024-05-09T00:01:21.327Z,1039.00
2024-05-09T00:02:20.377Z,1037.00
2024-05-09T00:03:20.375Z,1037.00
2024-05-09T00:04:20.321Z,1038.00
2024-05-09T00:05:20.492Z,1038.00
2024-05-09T00:06:20.330Z,1037.00
2024-05-09T00:07:20.353Z,1036.00
2024-05-09T00:08:20.430Z,1038.00
2024-05-09T00:09:20.394Z,1036.00
2024-05-09T00:10:25.590Z,1038.00
2024-05-09T00:11:21.548Z,1039.00
2024-05-09T00:12:20.554Z,1039.00
2024-05-09T00:13:20.467Z,1036.00
2024-05-09T00:14:20.524Z,1034.00
2024-05-09T00:15:20.519Z,1031.00
2024-05-09T00:16:20.538Z,1027.00
2024-05-09T00:17:20.583Z,1026.00
2024-05-09T00:18:20.701Z,1026.00
2024-05-09T00:19:20.774Z,1023.00
2024-05-09T00:20:28.033Z,1025.00
2024-05-09T00:21:21.633Z,1027.00
2024-05-09T00:22:20.671Z,1026.00
2024-05-09T00:23:20.685Z,1028.00
2024-05-09T00:24:20.675Z,1030.00
2024-05-09T00:25:20.797Z,1030.00
2024-05-09T00:26:20.783Z,1031.00
2024-05-09T00:27:20.930Z,1030.00
2024-05-09T00:28:20.751Z,1031.00
2024-05-09T00:29:20.910Z,1031.00
2024-05-09T00:30:27.820Z,1031.00
2024-05-09T00:31:21.838Z,1030.00
2024-05-09T00:32:21.185Z,1031.00
2024-05-09T00:33:21.309Z,1033.00
2024-05-09T00:34:21.001Z,1034.00
2024-05-09T00:35:20.938Z,1035.00
2024-05-09T00:36:20.962Z,1033.00
2024-05-09T00:37:20.928Z,1034.00
2024-05-09T00:38:21.154Z,1035.00
2024-05-09T00:39:20.971Z,1035.00
2024-05-09T00:40:30.801Z,1035.00
2024-05-09T00:41:22.029Z,1034.00
2024-05-09T00:42:21.042Z,1034.00
2024-05-09T00:43:21.057Z,1032.00
2024-05-09T00:44:21.126Z,1028.00
2024-05-09T00:45:21.102Z,1027.00
2024-05-09T00:46:21.133Z,1026.00
2024-05-09T00:47:21.400Z,1026.00
2024-05-09T00:48:21.748Z,1025.00
2024-05-09T00:49:21.470Z,1028.00
2024-05-09T00:50:29.440Z,1029.00
2024-05-09T00:51:22.280Z,1026.00
2024-05-09T00:52:21.287Z,1027.00
2024-05-09T00:53:21.418Z,1027.00
2024-05-09T00:54:21.267Z,1028.00
2024-05-09T00:55:21.285Z,1029.00
2024-05-09T00:56:21.337Z,1030.00
2024-05-09T00:57:21.322Z,1029.00
2024-05-09T00:58:21.338Z,1028.00
2024-05-09T00:59:21.622Z,1026.00
2024-05-09T01:00:27.356Z,1028.00
2024-05-09T01:01:22.406Z,1027.00
2024-05-09T01:02:21.555Z,1024.00
2024-05-09T01:03:21.852Z,1023.00
2024-05-09T01:04:21.491Z,1023.00
2024-05-09T01:05:21.463Z,1023.00
2024-05-09T01:06:21.484Z,1023.00
2024-05-09T01:07:21.507Z,1022.00
2024-05-09T01:08:21.714Z,1022.00
2024-05-09T01:09:21.567Z,1022.00
2024-05-09T01:10:27.952Z,1022.00
2024-05-09T01:11:22.745Z,1021.00
2024-05-09T01:12:21.690Z,1021.00
2024-05-09T01:13:21.613Z,1021.00
2024-05-09T01:14:21.652Z,1020.00
2024-05-09T01:15:21.649Z,1020.00
2024-05-09T01:16:21.672Z,1020.00
2024-05-09T01:17:21.758Z,1024.00
2024-05-09T01:18:21.899Z,1024.00
2024-05-09T01:19:21.968Z,1027.00
2024-05-09T01:21:21.847Z,1029.00
2024-05-09T01:22:21.795Z,1027.00
2024-05-09T01:23:21.827Z,1027.00
2024-05-09T01:24:21.846Z,1026.00
2024-05-09T01:25:21.871Z,1026.00
2024-05-09T01:26:21.942Z,1026.00
2024-05-09T01:27:21.998Z,1023.00
2024-05-09T01:28:22.060Z,1024.00
2024-05-09T01:29:22.175Z,1025.00
2024-05-09T01:30:31.214Z,1024.00
2024-05-09T01:31:23.228Z,1023.00
2024-05-09T01:32:22.546Z,1021.00
2024-05-09T01:33:22.375Z,1021.00
2024-05-09T01:34:22.356Z,1024.00
2024-05-09T01:35:22.369Z,1022.00
2024-05-09T01:36:22.352Z,1019.00
2024-05-09T01:37:22.380Z,1017.00
2024-05-09T01:38:22.460Z,1017.00
2024-05-09T01:39:22.414Z,1017.00
2024-05-09T01:40:29.132Z,1015.00
2024-05-09T01:41:23.506Z,1017.00
2024-05-09T01:42:22.506Z,1013.00
2024-05-09T01:43:22.551Z,1011.00
2024-05-09T01:44:22.730Z,1012.00
2024-05-09T01:45:22.563Z,1011.00
2024-05-09T01:46:22.596Z,1011.00
2024-05-09T01:47:22.798Z,1011.00
2024-05-09T01:48:22.797Z,1011.00
2024-05-09T01:49:22.833Z,1008.00
2024-05-09T01:50:34.130Z,1011.00
2024-05-09T01:51:23.804Z,1016.00
2024-05-09T01:52:22.769Z,1012.00
2024-05-09T01:53:22.868Z,1009.00
2024-05-09T01:54:22.832Z,1009.00
2024-05-09T01:55:22.862Z,1007.00
2024-05-09T01:56:22.976Z,1008.00
2024-05-09T01:57:22.922Z,1011.00
2024-05-09T01:58:22.965Z,1011.00
2024-05-09T01:59:23.065Z,1012.00
2024-05-09T02:00:33.262Z,1012.00
2024-05-09T02:01:24.135Z,1014.00
2024-05-09T02:02:23.217Z,1013.00
2024-05-09T02:03:23.409Z,1014.00
2024-05-09T02:04:23.389Z,1013.00
2024-05-09T02:05:23.407Z,1013.00
2024-05-09T02:06:23.278Z,1015.00
2024-05-09T02:07:23.288Z,1014.00
2024-05-09T02:08:23.363Z,1015.00
2024-05-09T02:09:23.438Z,1014.00
2024-05-09T02:10:30.262Z,1012.00
2024-05-09T02:11:24.501Z,1012.00
2024-05-09T02:12:23.534Z,1012.00
2024-05-09T02:13:23.514Z,1010.00
2024-05-09T02:14:23.635Z,1007.00
2024-05-09T02:15:23.586Z,1002.00
2024-05-09T02:16:23.623Z,998.00
2024-05-09T02:17:23.804Z,998.00
2024-05-09T02:18:23.902Z,1001.00
2024-05-09T02:19:23.856Z,1004.00
2024-05-09T02:20:33.052Z,1006.00
2024-05-09T02:21:24.828Z,1006.00
2024-05-09T02:22:23.872Z,1007.00
2024-05-09T02:23:23.903Z,1009.00
2024-05-09T02:24:23.922Z,1008.00
2024-05-09T02:25:23.940Z,1010.00
2024-05-09T02:26:24.018Z,1009.00
2024-05-09T02:27:24.028Z,1008.00
2024-05-09T02:28:24.089Z,1007.00
2024-05-09T02:29:24.182Z,1006.00
2024-05-09T02:30:30.914Z,1006.00
2024-05-09T02:31:25.174Z,1004.00
2024-05-09T02:32:24.395Z,1003.00
2024-05-09T02:33:24.395Z,1002.00
2024-05-09T02:34:24.346Z,1001.00
2024-05-09T02:35:24.373Z,1002.00
2024-05-09T02:36:24.368Z,1002.00
2024-05-09T02:37:24.415Z,1004.00
2024-05-09T02:38:24.521Z,1005.00
2024-05-09T02:39:24.502Z,1006.00
2024-05-09T02:41:24.646Z,1001.00
2024-05-09T02:42:24.616Z,1003.00
2024-05-09T02:43:25.324Z,1000.00
2024-05-09T02:44:24.862Z,999.00
2024-05-09T02:45:24.821Z,998.00
2024-05-09T02:46:24.907Z,997.00
2024-05-09T02:47:25.096Z,997.00
2024-05-09T02:48:25.113Z,995.00
2024-05-09T02:49:25.244Z,994.00
2024-05-09T02:50:33.644Z,992.00
2024-05-09T02:51:26.265Z,992.00
2024-05-09T02:52:25.318Z,993.00
2024-05-09T02:53:25.413Z,994.00
2024-05-09T02:54:25.405Z,996.00
2024-05-09T02:55:25.454Z,997.00
2024-05-09T02:56:25.586Z,998.00
2024-05-09T02:57:25.568Z,995.00
2024-05-09T02:58:25.598Z,995.00
2024-05-09T02:59:25.774Z,994.00
2024-05-09T03:01:25.881Z,989.00
2024-05-09T03:02:25.898Z,989.00
2024-05-09T03:03:26.287Z,992.00
2024-05-09T03:04:25.884Z,992.00
2024-05-09T03:05:26.064Z,993.00
2024-05-09T03:06:26.002Z,991.00
2024-05-09T03:07:26.099Z,989.00
2024-05-09T03:08:26.219Z,989.00
2024-05-09T03:09:26.254Z,988.00
2024-05-09T03:10:29.005Z,990.00
2024-05-09T03:11:27.502Z,988.00
2024-05-09T03:12:26.486Z,989.00
2024-05-09T03:13:26.480Z,988.00
2024-05-09T03:14:26.645Z,989.00
2024-05-09T03:15:26.645Z,989.00
2024-05-09T03:16:26.623Z,991.00
2024-05-09T03:17:26.766Z,990.00
2024-05-09T03:18:26.757Z,991.00
2024-05-09T03:19:26.836Z,992.00
2024-05-09T03:20:32.618Z,993.00
2024-05-09T03:21:27.874Z,990.00
2024-05-09T03:22:26.903Z,987.00
2024-05-09T03:23:26.990Z,988.00
2024-05-09T03:24:26.994Z,987.00
2024-05-09T03:25:27.042Z,987.00
2024-05-09T03:26:27.194Z,988.00
2024-05-09T03:27:27.130Z,984.00
2024-05-09T03:28:27.184Z,986.00
2024-05-09T03:29:27.341Z,985.00
2024-05-09T03:30:35.950Z,985.00
2024-05-09T03:31:28.341Z,985.00
2024-05-09T03:32:27.468Z,984.00
2024-05-09T03:33:27.575Z,984.00
2024-05-09T03:34:27.558Z,984.00
2024-05-09T03:35:27.586Z,984.00
2024-05-09T03:36:27.579Z,985.00
2024-05-09T03:37:27.632Z,987.00
2024-05-09T03:38:27.697Z,989.00
2024-05-09T03:39:27.719Z,990.00
2024-05-09T03:40:30.996Z,991.00
2024-05-09T03:41:27.853Z,992.00
2024-05-09T03:42:27.865Z,992.00
2024-05-09T03:43:27.905Z,990.00
2024-05-09T03:44:28.113Z,987.00
2024-05-09T03:45:28.007Z,986.00
2024-05-09T03:46:28.045Z,984.00
2024-05-09T03:47:28.263Z,985.00
2024-05-09T03:48:28.212Z,983.00
2024-05-09T03:49:28.218Z,982.00
2024-05-09T03:50:33.725Z,982.00
2024-05-09T03:51:29.290Z,980.00
2024-05-09T03:52:28.328Z,982.00
2024-05-09T03:53:28.395Z,981.00
2024-05-09T03:54:28.408Z,976.00
2024-05-09T03:55:28.467Z,974.00
2024-05-09T03:56:28.560Z,975.00
2024-05-09T03:57:28.534Z,974.00
2024-05-09T03:58:28.592Z,978.00
2024-05-09T03:59:28.821Z,982.00
2024-05-09T04:01:28.774Z,984.00
2024-05-09T04:02:28.880Z,983.00
2024-05-09T04:03:29.043Z,984.00
2024-05-09T04:04:28.897Z,984.00
2024-05-09T04:05:28.985Z,985.00
2024-05-09T04:06:29.046Z,983.00
2024-05-09T04:07:29.127Z,983.00
2024-05-09T04:08:29.241Z,985.00
2024-05-09T04:09:29.509Z,983.00
2024-05-09T04:10:33.349Z,979.00
2024-05-09T04:11:30.548Z,977.00
2024-05-09T04:12:29.509Z,978.00
2024-05-09T04:13:29.500Z,975.00
2024-05-09T04:14:29.637Z,973.00
2024-05-09T04:15:29.663Z,973.00
2024-05-09T04:16:29.611Z,973.00
2024-05-09T04:17:29.824Z,974.00
2024-05-09T04:18:29.800Z,977.00
2024-05-09T04:19:29.929Z,977.00
2024-05-09T04:20:37.507Z,974.00
2024-05-09T04:21:30.833Z,975.00
2024-05-09T04:22:29.880Z,972.00
2024-05-09T04:23:29.939Z,973.00
2024-05-09T04:24:29.961Z,973.00
2024-05-09T04:25:30.047Z,975.00
2024-05-09T04:26:30.129Z,974.00
2024-05-09T04:27:37.346Z,954.00
2024-05-09T04:28:37.338Z,958.00
2024-05-09T04:29:37.510Z,966.00
2024-05-09T04:30:40.105Z,967.00
2024-05-09T04:31:48.749Z,954.00
2024-05-09T04:32:48.825Z,960.00
2024-05-09T04:33:48.910Z,962.00
2024-05-09T04:34:48.782Z,962.00
2024-05-09T04:35:48.758Z,960.00
2024-05-09T04:36:48.777Z,958.00
2024-05-09T04:37:48.903Z,957.00
2024-05-09T04:38:48.790Z,958.00
2024-05-09T04:39:48.825Z,958.00
2024-05-09T04:40:48.869Z,956.00
2024-05-09T04:41:48.846Z,956.00
2024-05-09T04:42:48.880Z,955.00
2024-05-09T04:43:48.963Z,954.00
2024-05-09T04:44:48.911Z,953.00
2024-05-09T04:45:48.942Z,951.00
2024-05-09T04:46:48.976Z,952.00
2024-05-09T04:47:49.057Z,948.00
2024-05-09T04:48:49.107Z,949.00
2024-05-09T04:49:48.992Z,949.00
2024-05-09T04:50:49.091Z,949.00
2024-05-09T04:51:49.011Z,954.00
2024-05-09T04:52:49.054Z,954.00
2024-05-09T04:53:49.115Z,957.00
2024-05-09T04:54:49.059Z,956.00
2024-05-09T04:55:49.223Z,956.00
2024-05-09T04:56:49.216Z,955.00
2024-05-09T04:57:49.281Z,957.00
2024-05-09T04:58:49.403Z,956.00
2024-05-09T04:59:49.426Z,953.00
2024-05-09T05:00:49.560Z,950.00
2024-05-09T05:01:49.639Z,948.00
2024-05-09T05:02:49.772Z,950.00
2024-05-09T05:03:49.894Z,952.00
2024-05-09T05:04:50.098Z,953.00
2024-05-09T05:05:49.932Z,952.00
2024-05-09T05:06:49.974Z,953.00
2024-05-09T05:07:50.079Z,952.00
2024-05-09T05:08:50.103Z,950.00
2024-05-09T05:09:50.180Z,949.00
2024-05-09T05:10:50.450Z,952.00
2024-05-09T05:11:50.421Z,951.00
2024-05-09T05:12:50.412Z,952.00
2024-05-09T05:13:50.552Z,957.00
2024-05-09T05:14:50.568Z,957.00
2024-05-09T05:15:50.647Z,957.00
2024-05-09T05:16:50.730Z,955.00
2024-05-09T05:17:50.969Z,953.00
2024-05-09T05:18:50.968Z,951.00
2024-05-09T05:19:51.080Z,949.00
2024-05-09T05:20:51.337Z,947.00
2024-05-09T05:21:51.076Z,947.00
2024-05-09T05:22:51.202Z,947.00
2024-05-09T05:23:51.242Z,943.00
2024-05-09T05:24:51.311Z,942.00
2024-05-09T05:25:51.466Z,945.00
2024-05-09T05:26:51.469Z,946.00
2024-05-09T05:27:51.541Z,946.00
2024-05-09T05:28:51.623Z,946.00
2024-05-09T05:29:51.679Z,946.00
2024-05-09T05:30:51.775Z,944.00
2024-05-09T05:31:51.946Z,942.00
2024-05-09T05:32:52.077Z,944.00
2024-05-09T05:33:52.097Z,943.00
2024-05-09T05:34:52.085Z,942.00
2024-05-09T05:35:52.105Z,941.00
2024-05-09T05:36:52.187Z,941.00
2024-05-09T05:37:52.313Z,942.00
2024-05-09T05:38:52.376Z,939.00
2024-05-09T05:39:52.416Z,940.00
2024-05-09T05:40:52.496Z,940.00
2024-05-09T05:41:52.603Z,941.00
2024-05-09T05:42:52.635Z,939.00
2024-05-09T05:43:52.782Z,939.00
2024-05-09T05:44:52.785Z,937.00
2024-05-09T05:45:52.865Z,937.00
2024-05-09T05:46:53.016Z,935.00
2024-05-09T05:47:53.258Z,938.00
2024-05-09T05:48:53.275Z,938.00
2024-05-09T05:49:53.163Z,937.00
2024-05-09T05:50:53.314Z,933.00
2024-05-09T05:51:53.311Z,934.00
2024-05-09T05:52:53.388Z,936.00
2024-05-09T05:53:53.444Z,937.00
2024-05-09T05:54:53.518Z,938.00
2024-05-09T05:55:53.723Z,937.00
2024-05-09T05:56:53.675Z,940.00
2024-05-09T05:57:53.759Z,940.00
2024-05-09T05:58:53.860Z,939.00
2024-05-09T05:59:53.897Z,935.00
2024-05-09T06:00:54.095Z,933.00
2024-05-09T06:01:54.058Z,937.00
2024-05-09T06:02:54.167Z,938.00
2024-05-09T06:03:54.295Z,938.00
2024-05-09T06:04:54.312Z,940.00
2024-05-09T06:05:54.358Z,938.00
2024-05-09T06:06:54.381Z,939.00
2024-05-09T06:07:54.494Z,936.00
2024-05-09T06:08:54.620Z,933.00
2024-05-09T06:09:54.588Z,932.00
2024-05-09T06:10:54.719Z,933.00
2024-05-09T06:11:54.860Z,932.00
2024-05-09T06:12:54.841Z,934.00
2024-05-09T06:13:54.917Z,934.00
2024-05-09T06:14:54.961Z,934.00
2024-05-09T06:15:55.038Z,933.00
2024-05-09T06:16:58.120Z,934.00
2024-05-09T06:17:55.299Z,936.00
2024-05-09T06:18:55.344Z,935.00
2024-05-09T06:19:55.247Z,936.00
2024-05-09T06:20:55.192Z,936.00
2024-05-09T06:21:55.187Z,935.00
2024-05-09T06:22:55.270Z,938.00
2024-05-09T06:23:55.211Z,934.00
2024-05-09T06:24:55.241Z,935.00
2024-05-09T06:25:55.323Z,932.00
2024-05-09T06:26:55.274Z,932.00
2024-05-09T06:27:55.337Z,932.00
2024-05-09T06:28:55.354Z,932.00
2024-05-09T06:29:55.330Z,934.00
2024-05-09T06:30:55.368Z,930.00
2024-05-09T06:31:57.097Z,926.00
2024-05-09T06:32:55.499Z,925.00
2024-05-09T06:33:55.591Z,926.00
2024-05-09T06:34:55.520Z,927.00
2024-05-09T06:35:55.474Z,927.00
2024-05-09T06:36:55.499Z,926.00
2024-05-09T06:37:55.586Z,925.00
2024-05-09T06:38:55.528Z,926.00
2024-05-09T06:39:55.565Z,927.00
2024-05-09T06:40:55.598Z,929.00
2024-05-09T06:41:55.599Z,929.00
2024-05-09T06:42:55.609Z,926.00
2024-05-09T06:43:55.655Z,924.00
2024-05-09T06:44:55.650Z,925.00
2024-05-09T06:45:55.672Z,928.00
2024-05-09T06:46:58.086Z,931.00
2024-05-09T06:47:55.929Z,931.00
2024-05-09T06:48:55.965Z,928.00
2024-05-09T06:49:55.772Z,928.00
2024-05-09T06:50:55.802Z,927.00
2024-05-09T06:51:55.798Z,928.00
2024-05-09T06:52:55.814Z,926.00
2024-05-09T06:53:55.804Z,928.00
2024-05-09T06:54:55.820Z,928.00
2024-05-09T06:55:55.858Z,927.00
2024-05-09T06:56:55.844Z,928.00
2024-05-09T06:57:55.884Z,928.00
2024-05-09T06:58:55.947Z,929.00
2024-05-09T06:59:55.886Z,929.00
2024-05-09T07:00:55.940Z,929.00
2024-05-09T07:01:55.952Z,928.00
2024-05-09T07:02:56.165Z,928.00
2024-05-09T07:03:56.096Z,924.00
2024-05-09T07:04:56.105Z,925.00
2024-05-09T07:05:56.016Z,928.00
2024-05-09T07:06:56.005Z,929.00
2024-05-09T07:07:56.081Z,930.00
2024-05-09T07:08:56.055Z,927.00
2024-05-09T07:09:56.078Z,927.00
2024-05-09T07:10:56.166Z,925.00
2024-05-09T07:11:56.152Z,924.00
2024-05-09T07:12:56.131Z,924.00
2024-05-09T07:13:56.179Z,926.00
2024-05-09T07:14:56.158Z,928.00
2024-05-09T07:15:56.182Z,926.00
2024-05-09T07:16:56.240Z,926.00
2024-05-09T07:17:56.605Z,928.00
2024-05-09T07:18:56.521Z,924.00
2024-05-09T07:19:56.364Z,927.00
2024-05-09T07:20:56.592Z,926.00
2024-05-09T07:21:56.458Z,925.00
2024-05-09T07:22:56.544Z,928.00
2024-05-09T07:23:56.624Z,926.00
2024-05-09T07:24:56.654Z,926.00
2024-05-09T07:25:56.800Z,926.00
2024-05-09T07:26:56.790Z,927.00
2024-05-09T07:27:56.868Z,928.00
2024-05-09T07:28:56.956Z,930.00
2024-05-09T07:29:57.003Z,927.00
2024-05-09T07:30:57.065Z,926.00
2024-05-09T07:31:57.155Z,924.00
2024-05-09T07:32:57.524Z,922.00
2024-05-09T07:33:57.332Z,922.00
2024-05-09T07:34:57.360Z,923.00
2024-05-09T07:35:57.399Z,923.00
2024-05-09T07:36:57.460Z,925.00
2024-05-09T07:37:57.624Z,921.00
2024-05-09T07:38:57.576Z,919.00
2024-05-09T07:39:57.627Z,919.00
2024-05-09T07:40:57.732Z,919.00
2024-05-09T07:41:57.779Z,920.00
2024-05-09T07:42:57.845Z,921.00
2024-05-09T07:43:58.019Z,920.00
2024-05-09T07:45:14.679Z,918.00
2024-05-09T07:46:23.043Z,914.00
2024-05-09T07:49:44.345Z,914.00
2024-05-09T07:51:47.015Z,917.00
2024-05-09T07:52:39.173Z,918.00
2024-05-09T07:53:22.038Z,918.00
2024-05-09T07:54:00.695Z,918.00
2024-05-09T07:54:58.645Z,917.00
2024-05-09T07:55:58.502Z,917.00
2024-05-09T07:56:58.231Z,919.00
2024-05-09T07:57:58.190Z,916.00
2024-05-09T07:58:58.183Z,916.00
2024-05-09T07:59:58.219Z,914.00
2024-05-09T08:00:58.356Z,912.00
2024-05-09T08:01:58.331Z,910.00
2024-05-09T08:02:58.363Z,910.00
2024-05-09T08:03:58.593Z,908.00
2024-05-09T08:04:58.343Z,909.00
2024-05-09T08:05:58.293Z,909.00
2024-05-09T08:06:58.339Z,908.00
2024-05-09T08:07:58.323Z,907.00
2024-05-09T08:09:00.864Z,910.00
2024-05-09T08:09:58.499Z,914.00
2024-05-09T08:10:58.364Z,917.00
2024-05-09T08:11:58.411Z,918.00
2024-05-09T08:12:58.424Z,919.00
2024-05-09T08:13:58.409Z,919.00
2024-05-09T08:14:58.437Z,916.00
2024-05-09T08:15:58.510Z,914.00
2024-05-09T08:16:58.482Z,913.00
2024-05-09T08:17:58.504Z,912.00
2024-05-09T08:18:58.564Z,912.00
2024-05-09T08:19:58.483Z,914.00
2024-05-09T08:20:58.514Z,914.00
2024-05-09T08:21:58.545Z,915.00
2024-05-09T08:22:58.566Z,916.00
2024-05-09T08:23:58.591Z,916.00
2024-05-09T08:24:58.686Z,915.00
2024-05-09T08:25:58.716Z,916.00
2024-05-09T08:26:58.775Z,913.00
2024-05-09T08:27:58.953Z,911.00
2024-05-09T08:28:58.902Z,908.00
2024-05-09T08:29:59.034Z,911.00
2024-05-09T08:31:00.054Z,914.00
2024-05-09T08:31:59.191Z,914.00
2024-05-09T08:32:59.224Z,915.00
2024-05-09T08:33:59.310Z,916.00
2024-05-09T08:34:59.295Z,916.00
2024-05-09T08:35:59.329Z,916.00
2024-05-09T08:37:03.922Z,910.00
2024-05-09T08:38:00.446Z,906.00
2024-05-09T08:38:59.430Z,906.00
2024-05-09T08:39:59.545Z,907.00
2024-05-09T08:40:59.479Z,906.00
2024-05-09T08:41:59.454Z,906.00
2024-05-09T08:42:59.517Z,907.00
2024-05-09T08:43:59.486Z,910.00
2024-05-09T08:44:59.504Z,910.00
2024-05-09T08:45:59.603Z,908.00
2024-05-09T08:46:59.563Z,907.00
2024-05-09T08:47:59.749Z,907.00
2024-05-09T08:48:59.945Z,910.00
2024-05-09T08:49:59.866Z,909.00
2024-05-09T08:50:59.801Z,910.00
2024-05-09T08:51:59.875Z,911.00
2024-05-09T08:52:59.970Z,911.00
2024-05-09T08:54:00.009Z,910.00
2024-05-09T08:55:00.142Z,910.00
2024-05-09T08:56:00.152Z,910.00
2024-05-09T08:57:00.216Z,910.00
2024-05-09T08:58:00.312Z,907.00
2024-05-09T08:59:00.360Z,906.00
2024-05-09T09:00:00.480Z,907.00
2024-05-09T09:01:00.702Z,907.00
2024-05-09T09:02:00.612Z,905.00
2024-05-09T09:03:00.662Z,907.00
2024-05-09T09:04:00.761Z,909.00
2024-05-09T09:05:00.825Z,908.00
2024-05-09T09:06:00.775Z,910.00
2024-05-09T09:07:02.323Z,910.00
2024-05-09T09:08:01.055Z,908.00
2024-05-09T09:09:01.132Z,908.00
2024-05-09T09:10:01.295Z,907.00
2024-05-09T09:11:02.233Z,905.00
2024-05-09T09:12:01.359Z,906.00
2024-05-09T09:13:01.267Z,904.00
2024-05-09T09:14:01.246Z,906.00
2024-05-09T09:15:01.260Z,908.00
2024-05-09T09:16:01.348Z,912.00
2024-05-09T09:17:01.282Z,913.00
2024-05-09T09:18:01.662Z,912.00
2024-05-09T09:19:01.388Z,914.00
2024-05-09T09:20:01.498Z,914.00
2024-05-09T09:21:01.371Z,913.00
2024-05-09T09:22:01.561Z,912.00
2024-05-09T09:23:01.500Z,910.00
2024-05-09T09:24:01.573Z,908.00
2024-05-09T09:25:01.817Z,906.00
2024-05-09T09:26:01.838Z,904.00
2024-05-09T09:27:01.755Z,904.00
2024-05-09T09:28:02.810Z,903.00
2024-05-09T09:29:01.773Z,904.00
2024-05-09T09:30:01.772Z,905.00
2024-05-09T09:31:01.926Z,903.00
2024-05-09T09:32:01.839Z,902.00
2024-05-09T09:33:01.921Z,903.00
2024-05-09T09:34:01.955Z,901.00
2024-05-09T09:35:01.886Z,901.00
2024-05-09T09:36:01.858Z,898.00
2024-05-09T09:37:01.894Z,898.00
2024-05-09T09:38:01.977Z,899.00
2024-05-09T09:39:01.954Z,900.00
2024-05-09T09:40:02.028Z,899.00
2024-05-09T09:41:02.223Z,898.00
2024-05-09T09:42:02.135Z,898.00
2024-05-09T09:43:02.280Z,898.00
2024-05-09T09:44:02.290Z,900.00
2024-05-09T09:45:05.419Z,903.00
2024-05-09T09:46:02.470Z,904.00
2024-05-09T09:47:02.384Z,902.00
2024-05-09T09:48:02.441Z,897.00
2024-05-09T09:49:02.773Z,896.00
2024-05-09T09:50:03.138Z,897.00
2024-05-09T09:51:02.399Z,895.00
2024-05-09T09:52:02.459Z,893.00
2024-05-09T09:53:02.430Z,893.00
2024-05-09T09:54:02.437Z,892.00
2024-05-09T09:55:02.505Z,890.00
2024-05-09T09:56:02.458Z,892.00
2024-05-09T09:57:02.474Z,892.00
2024-05-09T09:58:02.535Z,891.00
2024-05-09T09:59:02.520Z,891.00
2024-05-09T10:00:05.720Z,893.00
2024-05-09T10:01:02.677Z,894.00
2024-05-09T10:02:02.766Z,893.00
2024-05-09T10:03:02.683Z,892.00
2024-05-09T10:04:02.785Z,894.00
2024-05-09T10:05:02.721Z,893.00
2024-05-09T10:06:02.637Z,890.00
2024-05-09T10:07:02.628Z,894.00
2024-05-09T10:08:02.615Z,893.00
2024-05-09T10:09:02.609Z,893.00
2024-05-09T10:10:02.749Z,893.00
2024-05-09T10:11:02.810Z,889.00
2024-05-09T10:12:02.653Z,889.00
2024-05-09T10:13:02.867Z,888.00
2024-05-09T10:14:02.734Z,888.00
2024-05-09T10:15:02.797Z,888.00
2024-05-09T10:16:45.812Z,879.00
2024-05-09T10:17:45.571Z,882.00
2024-05-09T10:18:45.654Z,884.00
2024-05-09T10:19:45.539Z,885.00
2024-05-09T10:20:45.582Z,884.00
2024-05-09T10:21:45.585Z,884.00
2024-05-09T10:22:45.539Z,884.00
2024-05-09T10:23:45.543Z,883.00
2024-05-09T10:24:45.636Z,885.00
2024-05-09T10:25:45.552Z,885.00
2024-05-09T10:26:45.560Z,887.00
2024-05-09T10:27:45.607Z,888.00
2024-05-09T10:28:45.584Z,885.00
2024-05-09T10:29:45.590Z,885.00
2024-05-09T10:30:46.670Z,885.00
2024-05-09T10:31:45.905Z,883.00
2024-05-09T10:32:45.716Z,884.00
2024-05-09T10:33:45.917Z,880.00
2024-05-09T10:34:45.665Z,881.00
2024-05-09T10:35:45.646Z,883.00
2024-05-09T10:36:45.686Z,884.00
2024-05-09T10:37:45.655Z,881.00
2024-05-09T10:38:45.673Z,882.00
2024-05-09T10:39:45.710Z,884.00
2024-05-09T10:40:45.763Z,877.00
2024-05-09T10:41:45.712Z,876.00
2024-05-09T10:42:45.795Z,873.00
2024-05-09T10:43:45.761Z,873.00
2024-05-09T10:44:45.752Z,872.00
2024-05-09T10:45:45.876Z,871.00
2024-05-09T10:46:45.887Z,873.00
2024-05-09T10:47:46.019Z,877.00
2024-05-09T10:48:46.064Z,879.00
2024-05-09T10:49:46.149Z,881.00
2024-05-09T10:50:46.111Z,882.00
2024-05-09T10:51:46.205Z,884.00
2024-05-09T10:52:46.221Z,886.00
2024-05-09T10:53:46.292Z,888.00
2024-05-09T10:54:46.367Z,886.00
2024-05-09T10:55:46.403Z,884.00
2024-05-09T10:56:46.478Z,881.00
2024-05-09T10:57:46.557Z,882.00
2024-05-09T10:58:46.612Z,881.00
2024-05-09T10:59:46.673Z,882.00
2024-05-09T11:00:46.823Z,883.00
2024-05-09T11:01:46.879Z,882.00
2024-05-09T11:02:46.905Z,881.00
2024-05-09T11:03:47.264Z,882.00
2024-05-09T11:04:47.135Z,882.00
2024-05-09T11:05:47.074Z,879.00
2024-05-09T11:06:47.142Z,877.00
2024-05-09T11:07:47.129Z,877.00
2024-05-09T11:08:47.213Z,880.00
2024-05-09T11:09:47.286Z,884.00
2024-05-09T11:10:47.457Z,883.00
2024-05-09T11:11:47.418Z,881.00
2024-05-09T11:12:47.479Z,882.00
2024-05-09T11:13:47.547Z,881.00
2024-05-09T11:14:47.567Z,882.00
2024-05-09T11:15:47.691Z,882.00
2024-05-09T11:16:47.679Z,883.00
2024-05-09T11:17:47.913Z,882.00
2024-05-09T11:18:47.981Z,883.00
2024-05-09T11:19:47.945Z,882.00
2024-05-09T11:20:48.027Z,883.00
2024-05-09T11:21:47.982Z,883.00
2024-05-09T11:22:48.058Z,883.00
2024-05-09T11:23:48.140Z,879.00
2024-05-09T11:24:48.226Z,878.00
2024-05-09T11:25:48.244Z,875.00
2024-05-09T11:26:48.312Z,876.00
2024-05-09T11:27:48.446Z,879.00
2024-05-09T11:28:48.442Z,878.00
2024-05-09T11:29:48.490Z,876.00
2024-05-09T11:30:48.596Z,874.00
2024-05-09T11:31:48.747Z,874.00
2024-05-09T11:32:48.735Z,872.00
2024-05-09T11:33:48.806Z,875.00
2024-05-09T11:34:48.791Z,877.00
2024-05-09T11:35:48.870Z,878.00
2024-05-09T11:36:48.980Z,875.00
2024-05-09T11:37:48.982Z,876.00
2024-05-09T11:38:49.037Z,877.00
2024-05-09T11:39:49.146Z,874.00
2024-05-09T11:40:49.185Z,872.00
2024-05-09T11:41:49.200Z,872.00
2024-05-09T11:42:52.963Z,868.00
2024-05-09T11:43:49.300Z,869.00
2024-05-09T11:44:49.286Z,869.00
2024-05-09T11:45:49.299Z,869.00
2024-05-09T11:46:49.313Z,869.00
2024-05-09T11:47:50.171Z,865.00
2024-05-09T11:48:49.570Z,863.00
2024-05-09T11:49:49.407Z,864.00
2024-05-09T11:50:49.377Z,865.00
2024-05-09T11:51:49.414Z,865.00
2024-05-09T11:52:49.412Z,864.00
2024-05-09T11:53:49.430Z,863.00
2024-05-09T11:54:49.469Z,863.00
2024-05-09T11:55:49.461Z,864.00
2024-05-09T11:56:49.482Z,862.00
2024-05-09T11:57:49.530Z,860.00
2024-05-09T11:58:49.519Z,861.00
2024-05-09T11:59:49.516Z,859.00
2024-05-09T12:00:49.675Z,856.00
2024-05-09T12:01:49.704Z,856.00
2024-05-09T12:02:49.602Z,853.00
2024-05-09T12:03:49.760Z,852.00
2024-05-09T12:04:49.676Z,850.00
2024-05-09T12:05:49.694Z,853.00
2024-05-09T12:06:49.615Z,856.00
2024-05-09T12:07:49.607Z,855.00
2024-05-09T12:08:49.627Z,857.00
2024-05-09T12:09:49.666Z,856.00
2024-05-09T12:10:49.934Z,860.00
2024-05-09T12:11:49.678Z,859.00
2024-05-09T12:12:49.775Z,857.00
2024-05-09T12:13:49.694Z,856.00
2024-05-09T12:14:49.695Z,857.00
2024-05-09T12:15:49.736Z,852.00
2024-05-09T12:16:49.840Z,853.00
2024-05-09T12:17:50.824Z,855.00
2024-05-09T12:18:49.977Z,854.00
2024-05-09T12:19:49.818Z,857.00
2024-05-09T12:20:49.885Z,857.00
2024-05-09T12:21:50.010Z,857.00
2024-05-09T12:22:49.992Z,859.00
2024-05-09T12:23:50.056Z,857.00
2024-05-09T12:24:50.206Z,856.00
2024-05-09T12:25:50.186Z,858.00
2024-05-09T12:26:50.241Z,856.00
2024-05-09T12:27:50.313Z,856.00
2024-05-09T12:28:50.350Z,855.00
2024-05-09T12:29:50.421Z,856.00
2024-05-09T12:30:50.548Z,853.00
2024-05-09T12:31:50.531Z,853.00